Time;durP1;ratioP1;P1;durP2;ratioP2;P2;SDS_P1;SDS_P2;PMS_P1;PMS_P2;Temp;Humidity;BMP_temperature;BMP_pressure;BME280_temperature;BME280_humidity;BME280_pressure;Samples;Min_cycle;Max_cycle;Signal;HPM_P1;HPM_P2
2019/06/17 00:00:54;;;;;;;7.9;7.100001;;;;;;;13.08;93.51172;95705.84;;;;
2019/06/17 00:02:08;;;;;;;7.9;7.100001;;;;;;;13.08;93.51172;95705.84;;;;
2019/06/17 00:03:23;;;;;;;7.9;7.100001;;;;;;;13.08;93.51172;95705.84;;;;
2019/06/17 00:04:25;;;;;;;7.9;7.100001;;;;;;;13.08;93.51172;95705.84;;;;
2019/06/17 00:05:26;;;;;;;8.050001;7.200001;;;;;;;12.91;93.78418;95699.63;;;;
2019/06/17 00:06:27;;;;;;;8.050001;7.200001;;;;;;;12.91;93.78418;95699.63;;;;
2019/06/17 00:07:28;;;;;;;8.050001;7.200001;;;;;;;12.91;93.78418;95699.63;;;;
2019/06/17 00:08:29;;;;;;;8.050001;7.200001;;;;;;;12.91;93.78418;95699.63;;;;
2019/06/17 00:09:30;;;;;;;8.050001;7.200001;;;;;;;12.91;93.78418;95699.63;;;;
2019/06/17 00:10:31;;;;;;;8.050001;7.200001;;;;;;;12.91;93.78418;95699.63;;;;
2019/06/17 00:11:32;;;;;;;8.050001;7.200001;;;;;;;12.91;93.78418;95699.63;;;;
2019/06/17 00:12:34;;;;;;;8.050001;7.200001;;;;;;;12.91;93.78418;95699.63;;;;
2019/06/17 00:13:35;;;;;;;8.050001;7.200001;;;;;;;12.91;93.78418;95699.63;;;;
2019/06/17 00:14:36;;;;;;;8.050001;7.200001;;;;;;;12.91;93.78418;95699.63;;;;
2019/06/17 00:15:37;;;;;;;8.850001;7.95;;;;;;;12.8;94.17969;95709.01;;;;
2019/06/17 00:16:38;;;;;;;8.850001;7.95;;;;;;;12.8;94.17969;95709.01;;;;
2019/06/17 00:17:39;;;;;;;8.850001;7.95;;;;;;;12.8;94.17969;95709.01;;;;
2019/06/17 00:18:40;;;;;;;8.850001;7.95;;;;;;;12.8;94.17969;95709.01;;;;
2019/06/17 00:19:41;;;;;;;8.850001;7.95;;;;;;;12.8;94.17969;95709.01;;;;
2019/06/17 00:20:42;;;;;;;8.850001;7.95;;;;;;;12.8;94.17969;95709.01;;;;
2019/06/17 00:21:44;;;;;;;8.850001;7.95;;;;;;;12.8;94.17969;95709.01;;;;
2019/06/17 00:22:45;;;;;;;8.850001;7.95;;;;;;;12.8;94.17969;95709.01;;;;
2019/06/17 00:23:46;;;;;;;8.850001;7.95;;;;;;;12.8;94.17969;95709.01;;;;
2019/06/17 00:24:47;;;;;;;8.850001;7.95;;;;;;;12.8;94.17969;95709.01;;;;
2019/06/17 00:25:48;;;;;;;8.850001;7.95;;;;;;;12.8;94.17969;95709.01;;;;
2019/06/17 00:26:49;;;;;;;8.850001;7.95;;;;;;;12.8;94.17969;95709.01;;;;
2019/06/17 00:27:50;;;;;;;8.850001;7.95;;;;;;;12.8;94.17969;95709.01;;;;
2019/06/17 00:28:51;;;;;;;8.850001;7.95;;;;;;;12.8;94.17969;95709.01;;;;
2019/06/17 00:29:52;;;;;;;8.850001;7.95;;;;;;;12.8;94.17969;95709.01;;;;
2019/06/17 00:30:53;;;;;;;8.850001;7.95;;;;;;;12.8;94.17969;95709.01;;;;
2019/06/17 00:31:55;;;;;;;8.850001;7.95;;;;;;;12.8;94.17969;95709.01;;;;
2019/06/17 00:32:56;;;;;;;8.850001;7.95;;;;;;;12.8;94.17969;95709.01;;;;
2019/06/17 00:33:57;;;;;;;8.850001;7.95;;;;;;;12.8;94.17969;95709.01;;;;
2019/06/17 00:34:58;;;;;;;8.850001;7.95;;;;;;;12.8;94.17969;95709.01;;;;
2019/06/17 00:35:59;;;;;;;8.850001;7.95;;;;;;;12.8;94.17969;95709.01;;;;
2019/06/17 00:37:00;;;;;;;8.1;7.199999;;;;;;;12.54;94.89355;95680.55;;;;
2019/06/17 00:38:01;;;;;;;8.1;7.199999;;;;;;;12.54;94.89355;95680.55;;;;
2019/06/17 00:39:03;;;;;;;8.1;7.199999;;;;;;;12.54;94.89355;95680.55;;;;
2019/06/17 00:40:05;;;;;;;8.1;7.199999;;;;;;;12.54;94.89355;95680.55;;;;
2019/06/17 00:41:06;;;;;;;8.1;7.199999;;;;;;;12.54;94.89355;95680.55;;;;
2019/06/17 00:42:07;;;;;;;8.1;7.199999;;;;;;;12.54;94.89355;95680.55;;;;
2019/06/17 00:43:08;;;;;;;8.1;7.199999;;;;;;;12.54;94.89355;95680.55;;;;
2019/06/17 00:44:09;;;;;;;8.1;7.199999;;;;;;;12.54;94.89355;95680.55;;;;
2019/06/17 00:45:11;;;;;;;8.1;7.199999;;;;;;;12.54;94.89355;95680.55;;;;
2019/06/17 00:46:12;;;;;;;8.1;7.199999;;;;;;;12.54;94.89355;95680.55;;;;
2019/06/17 00:47:13;;;;;;;9.35;8.449999;;;;;;;12.37;95.10352;95678.3;;;;
2019/06/17 00:48:14;;;;;;;9.35;8.449999;;;;;;;12.37;95.10352;95678.3;;;;
2019/06/17 00:49:15;;;;;;;9.35;8.449999;;;;;;;12.37;95.10352;95678.3;;;;
2019/06/17 00:50:16;;;;;;;9.35;8.449999;;;;;;;12.37;95.10352;95678.3;;;;
2019/06/17 00:51:17;;;;;;;9.35;8.449999;;;;;;;12.37;95.10352;95678.3;;;;
2019/06/17 00:52:18;;;;;;;9.35;8.449999;;;;;;;12.37;95.10352;95678.3;;;;
2019/06/17 00:53:19;;;;;;;9.35;8.449999;;;;;;;12.37;95.10352;95678.3;;;;
2019/06/17 00:54:20;;;;;;;9.35;8.449999;;;;;;;12.37;95.10352;95678.3;;;;
2019/06/17 00:55:21;;;;;;;9.35;8.449999;;;;;;;12.37;95.10352;95678.3;;;;
2019/06/17 00:56:22;;;;;;;9.35;8.449999;;;;;;;12.37;95.10352;95678.3;;;;
2019/06/17 00:57:23;;;;;;;9.35;8.449999;;;;;;;12.37;95.10352;95678.3;;;;
2019/06/17 00:58:24;;;;;;;8.949999;8.1;;;;;;;12.3;95.45215;95673.95;;;;
2019/06/17 00:59:26;;;;;;;8.949999;8.1;;;;;;;12.3;95.45215;95673.95;;;;
2019/06/17 01:00:27;;;;;;;8.949999;8.1;;;;;;;12.3;95.45215;95673.95;;;;
2019/06/17 01:01:28;;;;;;;8.949999;8.1;;;;;;;12.3;95.45215;95673.95;;;;
2019/06/17 01:02:29;;;;;;;8.949999;8.1;;;;;;;12.3;95.45215;95673.95;;;;
2019/06/17 01:03:30;;;;;;;8.949999;8.1;;;;;;;12.3;95.45215;95673.95;;;;
2019/06/17 01:04:31;;;;;;;8.949999;8.1;;;;;;;12.3;95.45215;95673.95;;;;
2019/06/17 01:05:32;;;;;;;8.949999;8.1;;;;;;;12.3;95.45215;95673.95;;;;
2019/06/17 01:06:33;;;;;;;8.949999;8.1;;;;;;;12.3;95.45215;95673.95;;;;
2019/06/17 01:07:34;;;;;;;8.949999;8.1;;;;;;;12.3;95.45215;95673.95;;;;
2019/06/17 01:08:36;;;;;;;8.650002;7.85;;;;;;;12.16;95.62207;95677.14;;;;
2019/06/17 01:09:37;;;;;;;8.650002;7.85;;;;;;;12.16;95.62207;95677.14;;;;
2019/06/17 01:10:38;;;;;;;8.650002;7.85;;;;;;;12.16;95.62207;95677.14;;;;
2019/06/17 01:11:39;;;;;;;8.650002;7.85;;;;;;;12.16;95.62207;95677.14;;;;
2019/06/17 01:12:41;;;;;;;8.650002;7.85;;;;;;;12.16;95.62207;95677.14;;;;
2019/06/17 01:13:42;;;;;;;8.650002;7.85;;;;;;;12.16;95.62207;95677.14;;;;
2019/06/17 01:14:44;;;;;;;8.650002;7.85;;;;;;;12.16;95.62207;95677.14;;;;
2019/06/17 01:15:45;;;;;;;8.650002;7.85;;;;;;;12.16;95.62207;95677.14;;;;
2019/06/17 01:16:46;;;;;;;8.650002;7.85;;;;;;;12.16;95.62207;95677.14;;;;
2019/06/17 01:17:47;;;;;;;8.650002;7.85;;;;;;;12.16;95.62207;95677.14;;;;
2019/06/17 01:18:48;;;;;;;9.099998;8.299998;;;;;;;12.09;95.89551;95676.44;;;;
2019/06/17 01:19:50;;;;;;;9.099998;8.299998;;;;;;;12.09;95.89551;95676.44;;;;
2019/06/17 01:20:51;;;;;;;9.099998;8.299998;;;;;;;12.09;95.89551;95676.44;;;;
2019/06/17 01:22:59;;;;;;;9.099998;8.299998;;;;;;;12.09;95.89551;95676.44;;;;
2019/06/17 01:24:01;;;;;;;9.099998;8.299998;;;;;;;12.09;95.89551;95676.44;;;;
2019/06/17 01:25:04;;;;;;;9.099998;8.299998;;;;;;;12.09;95.89551;95676.44;;;;
2019/06/17 01:26:06;;;;;;;9.099998;8.299998;;;;;;;12.09;95.89551;95676.44;;;;
2019/06/17 01:27:07;;;;;;;9.099998;8.299998;;;;;;;12.09;95.89551;95676.44;;;;
2019/06/17 01:28:08;;;;;;;9.099998;8.299998;;;;;;;12.09;95.89551;95676.44;;;;
2019/06/17 01:29:09;;;;;;;9.099998;8.299998;;;;;;;12.09;95.89551;95676.44;;;;
2019/06/17 01:30:11;;;;;;;8.9;8;;;;;;;11.97;96.13574;95678.3;;;;
2019/06/17 01:31:28;;;;;;;8.9;8;;;;;;;11.97;96.13574;95678.3;;;;
2019/06/17 01:32:29;;;;;;;8.9;8;;;;;;;11.97;96.13574;95678.3;;;;
2019/06/17 01:33:30;;;;;;;8.9;8;;;;;;;11.97;96.13574;95678.3;;;;
2019/06/17 01:34:32;;;;;;;8.9;8;;;;;;;11.97;96.13574;95678.3;;;;
2019/06/17 01:35:33;;;;;;;8.9;8;;;;;;;11.97;96.13574;95678.3;;;;
2019/06/17 01:36:34;;;;;;;8.9;8;;;;;;;11.97;96.13574;95678.3;;;;
2019/06/17 01:37:35;;;;;;;8.9;8;;;;;;;11.97;96.13574;95678.3;;;;
2019/06/17 01:38:36;;;;;;;8.9;8;;;;;;;11.97;96.13574;95678.3;;;;
2019/06/17 01:39:37;;;;;;;8.9;8;;;;;;;11.97;96.13574;95678.3;;;;
2019/06/17 01:40:38;;;;;;;9.000002;8.200001;;;;;;;11.95;96.36816;95672.19;;;;
2019/06/17 01:41:39;;;;;;;9.000002;8.200001;;;;;;;11.95;96.36816;95672.19;;;;
2019/06/17 01:42:41;;;;;;;9.000002;8.200001;;;;;;;11.95;96.36816;95672.19;;;;
2019/06/17 01:43:42;;;;;;;9.000002;8.200001;;;;;;;11.95;96.36816;95672.19;;;;
2019/06/17 01:44:43;;;;;;;9.000002;8.200001;;;;;;;11.95;96.36816;95672.19;;;;
2019/06/17 01:45:44;;;;;;;9.000002;8.200001;;;;;;;11.95;96.36816;95672.19;;;;
2019/06/17 01:46:45;;;;;;;9.000002;8.200001;;;;;;;11.95;96.36816;95672.19;;;;
2019/06/17 01:47:46;;;;;;;9.000002;8.200001;;;;;;;11.95;96.36816;95672.19;;;;
2019/06/17 01:48:48;;;;;;;9.000002;8.200001;;;;;;;11.95;96.36816;95672.19;;;;
2019/06/17 01:49:49;;;;;;;9.000002;8.200001;;;;;;;11.95;96.36816;95672.19;;;;
2019/06/17 01:50:51;;;;;;;10.6;8.500001;;;;;;;11.81;96.33496;95658.18;;;;
2019/06/17 01:51:52;;;;;;;10.6;8.500001;;;;;;;11.81;96.33496;95658.18;;;;
2019/06/17 01:52:53;;;;;;;10.6;8.500001;;;;;;;11.81;96.33496;95658.18;;;;
2019/06/17 01:53:54;;;;;;;10.6;8.500001;;;;;;;11.81;96.33496;95658.18;;;;
2019/06/17 01:54:55;;;;;;;10.6;8.500001;;;;;;;11.81;96.33496;95658.18;;;;
2019/06/17 01:55:56;;;;;;;10.6;8.500001;;;;;;;11.81;96.33496;95658.18;;;;
2019/06/17 01:56:58;;;;;;;10.6;8.500001;;;;;;;11.81;96.33496;95658.18;;;;
2019/06/17 01:57:59;;;;;;;10.6;8.500001;;;;;;;11.81;96.33496;95658.18;;;;
2019/06/17 01:59:00;;;;;;;10.6;8.500001;;;;;;;11.81;96.33496;95658.18;;;;
2019/06/17 02:00:01;;;;;;;10.6;8.500001;;;;;;;11.81;96.33496;95658.18;;;;
2019/06/17 02:01:03;;;;;;;8.25;7.45;;;;;;;11.72;96.71094;95667.7;;;;
2019/06/17 02:02:04;;;;;;;8.25;7.45;;;;;;;11.72;96.71094;95667.7;;;;
2019/06/17 02:03:06;;;;;;;8.25;7.45;;;;;;;11.72;96.71094;95667.7;;;;
2019/06/17 02:04:07;;;;;;;8.25;7.45;;;;;;;11.72;96.71094;95667.7;;;;
2019/06/17 02:05:08;;;;;;;8.25;7.45;;;;;;;11.72;96.71094;95667.7;;;;
2019/06/17 02:06:30;;;;;;;8.25;7.45;;;;;;;11.72;96.71094;95667.7;;;;
2019/06/17 02:07:33;;;;;;;8.25;7.45;;;;;;;11.72;96.71094;95667.7;;;;
2019/06/17 02:08:36;;;;;;;8.25;7.45;;;;;;;11.72;96.71094;95667.7;;;;
2019/06/17 02:09:42;;;;;;;8.25;7.45;;;;;;;11.72;96.71094;95667.7;;;;
2019/06/17 02:10:44;;;;;;;8.25;7.45;;;;;;;11.72;96.71094;95667.7;;;;
2019/06/17 02:12:10;;;;;;;8.25;7.45;;;;;;;11.72;96.71094;95667.7;;;;
2019/06/17 02:13:11;;;;;;;8.25;7.45;;;;;;;11.72;96.71094;95667.7;;;;
2019/06/17 02:14:12;;;;;;;8.25;7.45;;;;;;;11.72;96.71094;95667.7;;;;
2019/06/17 02:15:13;;;;;;;8.25;7.45;;;;;;;11.72;96.71094;95667.7;;;;
2019/06/17 02:16:14;;;;;;;8.25;7.45;;;;;;;11.72;96.71094;95667.7;;;;
2019/06/17 02:17:15;;;;;;;8.25;7.45;;;;;;;11.72;96.71094;95667.7;;;;
2019/06/17 02:18:17;;;;;;;8.25;7.45;;;;;;;11.72;96.71094;95667.7;;;;
2019/06/17 02:19:18;;;;;;;8.25;7.45;;;;;;;11.72;96.71094;95667.7;;;;
2019/06/17 02:20:19;;;;;;;8.25;7.45;;;;;;;11.72;96.71094;95667.7;;;;
2019/06/17 02:21:20;;;;;;;8.25;7.45;;;;;;;11.72;96.71094;95667.7;;;;
2019/06/17 02:22:21;;;;;;;8.25;7.45;;;;;;;11.72;96.71094;95667.7;;;;
2019/06/17 02:23:22;;;;;;;8.25;7.45;;;;;;;11.72;96.71094;95667.7;;;;
2019/06/17 02:24:23;;;;;;;8.25;7.45;;;;;;;11.72;96.71094;95667.7;;;;
2019/06/17 02:25:25;;;;;;;8.25;7.45;;;;;;;11.72;96.71094;95667.7;;;;
2019/06/17 02:26:26;;;;;;;8.25;7.45;;;;;;;11.72;96.71094;95667.7;;;;
2019/06/17 02:27:27;;;;;;;8.25;7.45;;;;;;;11.72;96.71094;95667.7;;;;
2019/06/17 02:28:28;;;;;;;8.25;7.45;;;;;;;11.72;96.71094;95667.7;;;;
2019/06/17 02:29:29;;;;;;;8.25;7.45;;;;;;;11.72;96.71094;95667.7;;;;
2019/06/17 02:30:30;;;;;;;8.25;7.45;;;;;;;11.72;96.71094;95667.7;;;;
2019/06/17 02:31:31;;;;;;;8.25;7.45;;;;;;;11.72;96.71094;95667.7;;;;
2019/06/17 02:32:32;;;;;;;8.25;7.45;;;;;;;11.72;96.71094;95667.7;;;;
2019/06/17 02:33:33;;;;;;;8.25;7.45;;;;;;;11.72;96.71094;95667.7;;;;
2019/06/17 02:34:35;;;;;;;8.25;7.45;;;;;;;11.72;96.71094;95667.7;;;;
2019/06/17 02:35:36;;;;;;;8.25;7.45;;;;;;;11.72;96.71094;95667.7;;;;
2019/06/17 02:36:37;;;;;;;8.25;7.45;;;;;;;11.72;96.71094;95667.7;;;;
2019/06/17 02:37:38;;;;;;;8.25;7.45;;;;;;;11.72;96.71094;95667.7;;;;
2019/06/17 02:38:39;;;;;;;8.25;7.45;;;;;;;11.72;96.71094;95667.7;;;;
2019/06/17 02:39:40;;;;;;;8.25;7.45;;;;;;;11.72;96.71094;95667.7;;;;
2019/06/17 02:40:42;;;;;;;8.25;7.45;;;;;;;11.72;96.71094;95667.7;;;;
2019/06/17 02:41:43;;;;;;;8.25;7.45;;;;;;;11.72;96.71094;95667.7;;;;
2019/06/17 02:42:44;;;;;;;8.25;7.45;;;;;;;11.72;96.71094;95667.7;;;;
2019/06/17 02:43:45;;;;;;;8.55;7.45;;;;;;;11.36;97.38574;95679.99;;;;
2019/06/17 02:44:46;;;;;;;8.55;7.45;;;;;;;11.36;97.38574;95679.99;;;;
2019/06/17 02:45:47;;;;;;;8.55;7.45;;;;;;;11.36;97.38574;95679.99;;;;
2019/06/17 02:46:48;;;;;;;8.55;7.45;;;;;;;11.36;97.38574;95679.99;;;;
2019/06/17 02:47:49;;;;;;;8.55;7.45;;;;;;;11.36;97.38574;95679.99;;;;
2019/06/17 02:48:50;;;;;;;8.55;7.45;;;;;;;11.36;97.38574;95679.99;;;;
2019/06/17 02:49:51;;;;;;;8.55;7.45;;;;;;;11.36;97.38574;95679.99;;;;
2019/06/17 02:50:52;;;;;;;8.55;7.45;;;;;;;11.36;97.38574;95679.99;;;;
2019/06/17 02:51:54;;;;;;;8.55;7.45;;;;;;;11.36;97.38574;95679.99;;;;
2019/06/17 02:52:55;;;;;;;8.55;7.45;;;;;;;11.36;97.38574;95679.99;;;;
2019/06/17 02:53:56;;;;;;;8.55;7.45;;;;;;;11.36;97.38574;95679.99;;;;
2019/06/17 02:54:57;;;;;;;8.75;8;;;;;;;11.27;97.51563;95677.73;;;;
2019/06/17 02:55:58;;;;;;;8.75;8;;;;;;;11.27;97.51563;95677.73;;;;
2019/06/17 02:56:59;;;;;;;8.75;8;;;;;;;11.27;97.51563;95677.73;;;;
2019/06/17 02:58:00;;;;;;;8.75;8;;;;;;;11.27;97.51563;95677.73;;;;
2019/06/17 02:59:01;;;;;;;8.75;8;;;;;;;11.27;97.51563;95677.73;;;;
2019/06/17 03:00:02;;;;;;;8.75;8;;;;;;;11.27;97.51563;95677.73;;;;
2019/06/17 03:01:13;;;;;;;8.75;8;;;;;;;11.27;97.51563;95677.73;;;;
2019/06/17 03:02:15;;;;;;;8.75;8;;;;;;;11.27;97.51563;95677.73;;;;
2019/06/17 03:03:16;;;;;;;8.75;8;;;;;;;11.27;97.51563;95677.73;;;;
2019/06/17 03:04:17;;;;;;;8.75;8;;;;;;;11.27;97.51563;95677.73;;;;
2019/06/17 03:05:18;;;;;;;7.9;7.100001;;;;;;;11.22;97.59961;95677.19;;;;
2019/06/17 03:06:19;;;;;;;7.9;7.100001;;;;;;;11.22;97.59961;95677.19;;;;
2019/06/17 03:07:20;;;;;;;7.9;7.100001;;;;;;;11.22;97.59961;95677.19;;;;
2019/06/17 03:08:21;;;;;;;7.9;7.100001;;;;;;;11.22;97.59961;95677.19;;;;
2019/06/17 03:09:22;;;;;;;7.9;7.100001;;;;;;;11.22;97.59961;95677.19;;;;
2019/06/17 03:10:23;;;;;;;7.9;7.100001;;;;;;;11.22;97.59961;95677.19;;;;
2019/06/17 03:11:24;;;;;;;7.9;7.100001;;;;;;;11.22;97.59961;95677.19;;;;
2019/06/17 03:12:25;;;;;;;7.9;7.100001;;;;;;;11.22;97.59961;95677.19;;;;
2019/06/17 03:13:26;;;;;;;7.9;7.100001;;;;;;;11.22;97.59961;95677.19;;;;
2019/06/17 03:14:27;;;;;;;7.9;7.100001;;;;;;;11.22;97.59961;95677.19;;;;
2019/06/17 03:15:28;;;;;;;12.05;10.85;;;;;;;11.16;97.65234;95685.28;;;;
2019/06/17 03:16:29;;;;;;;12.05;10.85;;;;;;;11.16;97.65234;95685.28;;;;
2019/06/17 03:17:30;;;;;;;12.05;10.85;;;;;;;11.16;97.65234;95685.28;;;;
2019/06/17 03:18:31;;;;;;;12.05;10.85;;;;;;;11.16;97.65234;95685.28;;;;
2019/06/17 03:19:32;;;;;;;12.05;10.85;;;;;;;11.16;97.65234;95685.28;;;;
2019/06/17 03:20:33;;;;;;;12.05;10.85;;;;;;;11.16;97.65234;95685.28;;;;
2019/06/17 03:21:35;;;;;;;12.05;10.85;;;;;;;11.16;97.65234;95685.28;;;;
2019/06/17 03:22:36;;;;;;;12.05;10.85;;;;;;;11.16;97.65234;95685.28;;;;
2019/06/17 03:23:37;;;;;;;12.05;10.85;;;;;;;11.16;97.65234;95685.28;;;;
2019/06/17 03:24:38;;;;;;;12.05;10.85;;;;;;;11.16;97.65234;95685.28;;;;
2019/06/17 03:25:39;;;;;;;12.05;10.85;;;;;;;11.16;97.65234;95685.28;;;;
2019/06/17 03:26:40;;;;;;;10.6;9.6;;;;;;;11.19;97.85938;95679.96;;;;
2019/06/17 03:27:41;;;;;;;10.6;9.6;;;;;;;11.19;97.85938;95679.96;;;;
2019/06/17 03:28:42;;;;;;;10.6;9.6;;;;;;;11.19;97.85938;95679.96;;;;
2019/06/17 03:29:43;;;;;;;10.6;9.6;;;;;;;11.19;97.85938;95679.96;;;;
2019/06/17 03:30:44;;;;;;;10.6;9.6;;;;;;;11.19;97.85938;95679.96;;;;
2019/06/17 03:31:45;;;;;;;10.6;9.6;;;;;;;11.19;97.85938;95679.96;;;;
2019/06/17 03:32:46;;;;;;;10.6;9.6;;;;;;;11.19;97.85938;95679.96;;;;
2019/06/17 03:33:48;;;;;;;10.6;9.6;;;;;;;11.19;97.85938;95679.96;;;;
2019/06/17 03:34:49;;;;;;;10.6;9.6;;;;;;;11.19;97.85938;95679.96;;;;
2019/06/17 03:35:50;;;;;;;10.6;9.6;;;;;;;11.19;97.85938;95679.96;;;;
2019/06/17 03:36:51;;;;;;;9.85;8.949999;;;;;;;11.11;98;95682.96;;;;
2019/06/17 03:37:52;;;;;;;9.85;8.949999;;;;;;;11.11;98;95682.96;;;;
2019/06/17 03:38:53;;;;;;;9.85;8.949999;;;;;;;11.11;98;95682.96;;;;
2019/06/17 03:39:54;;;;;;;9.85;8.949999;;;;;;;11.11;98;95682.96;;;;
2019/06/17 03:40:55;;;;;;;9.85;8.949999;;;;;;;11.11;98;95682.96;;;;
2019/06/17 03:41:56;;;;;;;9.85;8.949999;;;;;;;11.11;98;95682.96;;;;
2019/06/17 03:42:57;;;;;;;9.85;8.949999;;;;;;;11.11;98;95682.96;;;;
2019/06/17 03:43:58;;;;;;;9.85;8.949999;;;;;;;11.11;98;95682.96;;;;
2019/06/17 03:44:59;;;;;;;9.85;8.949999;;;;;;;11.11;98;95682.96;;;;
2019/06/17 03:46:00;;;;;;;9.85;8.949999;;;;;;;11.11;98;95682.96;;;;
2019/06/17 03:47:01;;;;;;;9.85;8.949999;;;;;;;11.11;98;95682.96;;;;
2019/06/17 03:48:02;;;;;;;9.85;8.949999;;;;;;;11.11;98;95682.96;;;;
2019/06/17 03:49:04;;;;;;;9.85;8.949999;;;;;;;11.11;98;95682.96;;;;
2019/06/17 03:50:05;;;;;;;9.85;8.949999;;;;;;;11.11;98;95682.96;;;;
2019/06/17 03:51:06;;;;;;;9.85;8.949999;;;;;;;11.11;98;95682.96;;;;
2019/06/17 03:52:07;;;;;;;9.85;8.949999;;;;;;;11.11;98;95682.96;;;;
2019/06/17 03:53:08;;;;;;;9.85;8.949999;;;;;;;11.11;98;95682.96;;;;
2019/06/17 03:54:09;;;;;;;9.85;8.949999;;;;;;;11.11;98;95682.96;;;;
2019/06/17 03:55:10;;;;;;;9.85;8.949999;;;;;;;11.11;98;95682.96;;;;
2019/06/17 03:56:11;;;;;;;9.85;8.949999;;;;;;;11.11;98;95682.96;;;;
2019/06/17 03:57:12;;;;;;;9.85;8.949999;;;;;;;11.11;98;95682.96;;;;
2019/06/17 03:58:13;;;;;;;13.7;12.4;;;;;;;11.23;98.31641;95692.76;;;;
2019/06/17 03:59:14;;;;;;;13.7;12.4;;;;;;;11.23;98.31641;95692.76;;;;
2019/06/17 04:00:16;;;;;;;13.7;12.4;;;;;;;11.23;98.31641;95692.76;;;;
2019/06/17 04:01:17;;;;;;;13.7;12.4;;;;;;;11.23;98.31641;95692.76;;;;
2019/06/17 04:02:18;;;;;;;13.7;12.4;;;;;;;11.23;98.31641;95692.76;;;;
2019/06/17 04:03:19;;;;;;;13.7;12.4;;;;;;;11.23;98.31641;95692.76;;;;
2019/06/17 04:04:20;;;;;;;13.7;12.4;;;;;;;11.23;98.31641;95692.76;;;;
2019/06/17 04:05:21;;;;;;;13.7;12.4;;;;;;;11.23;98.31641;95692.76;;;;
2019/06/17 04:06:22;;;;;;;13.7;12.4;;;;;;;11.23;98.31641;95692.76;;;;
2019/06/17 04:07:23;;;;;;;13.7;12.4;;;;;;;11.23;98.31641;95692.76;;;;
2019/06/17 04:08:24;;;;;;;14.3;12.8;;;;;;;11.59;98.17285;95700.74;;;;
2019/06/17 04:09:25;;;;;;;14.3;12.8;;;;;;;11.59;98.17285;95700.74;;;;
2019/06/17 04:10:26;;;;;;;14.3;12.8;;;;;;;11.59;98.17285;95700.74;;;;
2019/06/17 04:11:27;;;;;;;14.3;12.8;;;;;;;11.59;98.17285;95700.74;;;;
2019/06/17 04:12:28;;;;;;;14.3;12.8;;;;;;;11.59;98.17285;95700.74;;;;
2019/06/17 04:13:29;;;;;;;14.3;12.8;;;;;;;11.59;98.17285;95700.74;;;;
2019/06/17 04:14:31;;;;;;;14.3;12.8;;;;;;;11.59;98.17285;95700.74;;;;
2019/06/17 04:15:32;;;;;;;14.3;12.8;;;;;;;11.59;98.17285;95700.74;;;;
2019/06/17 04:16:33;;;;;;;14.3;12.8;;;;;;;11.59;98.17285;95700.74;;;;
2019/06/17 04:17:34;;;;;;;14.3;12.8;;;;;;;11.59;98.17285;95700.74;;;;
2019/06/17 04:18:35;;;;;;;14.3;12.8;;;;;;;11.59;98.17285;95700.74;;;;
2019/06/17 04:19:36;;;;;;;16.6;14.9;;;;;;;12.06;97.84961;95689.48;;;;
2019/06/17 04:20:37;;;;;;;16.6;14.9;;;;;;;12.06;97.84961;95689.48;;;;
2019/06/17 04:21:38;;;;;;;16.6;14.9;;;;;;;12.06;97.84961;95689.48;;;;
2019/06/17 04:22:39;;;;;;;16.6;14.9;;;;;;;12.06;97.84961;95689.48;;;;
2019/06/17 04:23:40;;;;;;;16.6;14.9;;;;;;;12.06;97.84961;95689.48;;;;
2019/06/17 04:24:41;;;;;;;16.6;14.9;;;;;;;12.06;97.84961;95689.48;;;;
2019/06/17 04:25:42;;;;;;;16.6;14.9;;;;;;;12.06;97.84961;95689.48;;;;
2019/06/17 04:26:43;;;;;;;16.6;14.9;;;;;;;12.06;97.84961;95689.48;;;;
2019/06/17 04:27:44;;;;;;;16.6;14.9;;;;;;;12.06;97.84961;95689.48;;;;
2019/06/17 04:28:46;;;;;;;16.6;14.9;;;;;;;12.06;97.84961;95689.48;;;;
2019/06/17 04:29:47;;;;;;;16.2;14.5;;;;;;;12.6;97.75781;95693.58;;;;
2019/06/17 04:30:48;;;;;;;16.2;14.5;;;;;;;12.6;97.75781;95693.58;;;;
2019/06/17 04:31:49;;;;;;;16.2;14.5;;;;;;;12.6;97.75781;95693.58;;;;
2019/06/17 04:32:50;;;;;;;16.2;14.5;;;;;;;12.6;97.75781;95693.58;;;;
2019/06/17 04:33:51;;;;;;;16.2;14.5;;;;;;;12.6;97.75781;95693.58;;;;
2019/06/17 04:34:52;;;;;;;16.2;14.5;;;;;;;12.6;97.75781;95693.58;;;;
2019/06/17 04:35:53;;;;;;;16.2;14.5;;;;;;;12.6;97.75781;95693.58;;;;
2019/06/17 04:36:54;;;;;;;16.2;14.5;;;;;;;12.6;97.75781;95693.58;;;;
2019/06/17 04:37:55;;;;;;;16.2;14.5;;;;;;;12.6;97.75781;95693.58;;;;
2019/06/17 04:38:56;;;;;;;16.2;14.5;;;;;;;12.6;97.75781;95693.58;;;;
2019/06/17 04:39:57;;;;;;;14.7;13.3;;;;;;;13.01;97.48633;95685.33;;;;
2019/06/17 04:40:58;;;;;;;14.7;13.3;;;;;;;13.01;97.48633;95685.33;;;;
2019/06/17 04:41:59;;;;;;;14.7;13.3;;;;;;;13.01;97.48633;95685.33;;;;
2019/06/17 04:43:00;;;;;;;14.7;13.3;;;;;;;13.01;97.48633;95685.33;;;;
2019/06/17 04:44:01;;;;;;;14.7;13.3;;;;;;;13.01;97.48633;95685.33;;;;
2019/06/17 04:45:03;;;;;;;14.7;13.3;;;;;;;13.01;97.48633;95685.33;;;;
2019/06/17 04:46:04;;;;;;;14.7;13.3;;;;;;;13.01;97.48633;95685.33;;;;
2019/06/17 04:47:05;;;;;;;14.7;13.3;;;;;;;13.01;97.48633;95685.33;;;;
2019/06/17 04:48:06;;;;;;;14.7;13.3;;;;;;;13.01;97.48633;95685.33;;;;
2019/06/17 04:49:07;;;;;;;14.7;13.3;;;;;;;13.01;97.48633;95685.33;;;;
2019/06/17 04:50:08;;;;;;;14.7;13.3;;;;;;;13.01;97.48633;95685.33;;;;
2019/06/17 04:51:09;;;;;;;24.8;21.35;;;;;;;13.4;97.64648;95685.03;;;;
2019/06/17 04:52:10;;;;;;;24.8;21.35;;;;;;;13.4;97.64648;95685.03;;;;
2019/06/17 04:53:11;;;;;;;24.8;21.35;;;;;;;13.4;97.64648;95685.03;;;;
2019/06/17 04:54:13;;;;;;;24.8;21.35;;;;;;;13.4;97.64648;95685.03;;;;
2019/06/17 04:55:14;;;;;;;24.8;21.35;;;;;;;13.4;97.64648;95685.03;;;;
2019/06/17 04:56:15;;;;;;;24.8;21.35;;;;;;;13.4;97.64648;95685.03;;;;
2019/06/17 04:57:16;;;;;;;24.8;21.35;;;;;;;13.4;97.64648;95685.03;;;;
2019/06/17 04:58:17;;;;;;;24.8;21.35;;;;;;;13.4;97.64648;95685.03;;;;
2019/06/17 04:59:18;;;;;;;24.8;21.35;;;;;;;13.4;97.64648;95685.03;;;;
2019/06/17 05:00:19;;;;;;;24.8;21.35;;;;;;;13.4;97.64648;95685.03;;;;
2019/06/17 05:01:20;;;;;;;24.1;21.6;;;;;;;13.74;97.71094;95673.16;;;;
2019/06/17 05:02:21;;;;;;;24.1;21.6;;;;;;;13.74;97.71094;95673.16;;;;
2019/06/17 05:03:22;;;;;;;24.1;21.6;;;;;;;13.74;97.71094;95673.16;;;;
2019/06/17 05:04:23;;;;;;;24.1;21.6;;;;;;;13.74;97.71094;95673.16;;;;
2019/06/17 05:05:25;;;;;;;24.1;21.6;;;;;;;13.74;97.71094;95673.16;;;;
2019/06/17 05:06:26;;;;;;;24.1;21.6;;;;;;;13.74;97.71094;95673.16;;;;
2019/06/17 05:07:27;;;;;;;24.1;21.6;;;;;;;13.74;97.71094;95673.16;;;;
2019/06/17 05:08:28;;;;;;;24.1;21.6;;;;;;;13.74;97.71094;95673.16;;;;
2019/06/17 05:09:29;;;;;;;24.1;21.6;;;;;;;13.74;97.71094;95673.16;;;;
2019/06/17 05:10:30;;;;;;;24.1;21.6;;;;;;;13.74;97.71094;95673.16;;;;
2019/06/17 05:11:31;;;;;;;24.1;21.6;;;;;;;13.74;97.71094;95673.16;;;;
2019/06/17 05:12:32;;;;;;;41.85;35.25;;;;;;;14.18;97.95703;95673.6;;;;
2019/06/17 05:13:33;;;;;;;41.85;35.25;;;;;;;14.18;97.95703;95673.6;;;;
2019/06/17 05:14:34;;;;;;;41.85;35.25;;;;;;;14.18;97.95703;95673.6;;;;
2019/06/17 05:15:35;;;;;;;41.85;35.25;;;;;;;14.18;97.95703;95673.6;;;;
2019/06/17 05:16:36;;;;;;;41.85;35.25;;;;;;;14.18;97.95703;95673.6;;;;
2019/06/17 05:17:37;;;;;;;41.85;35.25;;;;;;;14.18;97.95703;95673.6;;;;
2019/06/17 05:18:38;;;;;;;41.85;35.25;;;;;;;14.18;97.95703;95673.6;;;;
2019/06/17 05:19:39;;;;;;;41.85;35.25;;;;;;;14.18;97.95703;95673.6;;;;
2019/06/17 05:20:40;;;;;;;41.85;35.25;;;;;;;14.18;97.95703;95673.6;;;;
2019/06/17 05:21:42;;;;;;;41.85;35.25;;;;;;;14.18;97.95703;95673.6;;;;
2019/06/17 05:22:43;;;;;;;42.45;37.85;;;;;;;14.63;98.19629;95672.09;;;;
2019/06/17 05:23:44;;;;;;;42.45;37.85;;;;;;;14.63;98.19629;95672.09;;;;
2019/06/17 05:24:45;;;;;;;42.45;37.85;;;;;;;14.63;98.19629;95672.09;;;;
2019/06/17 05:25:46;;;;;;;42.45;37.85;;;;;;;14.63;98.19629;95672.09;;;;
2019/06/17 05:26:47;;;;;;;42.45;37.85;;;;;;;14.63;98.19629;95672.09;;;;
2019/06/17 05:27:48;;;;;;;42.45;37.85;;;;;;;14.63;98.19629;95672.09;;;;
2019/06/17 05:28:49;;;;;;;42.45;37.85;;;;;;;14.63;98.19629;95672.09;;;;
2019/06/17 05:29:50;;;;;;;42.45;37.85;;;;;;;14.63;98.19629;95672.09;;;;
2019/06/17 05:30:51;;;;;;;42.45;37.85;;;;;;;14.63;98.19629;95672.09;;;;
2019/06/17 05:31:56;;;;;;;42.45;37.85;;;;;;;14.63;98.19629;95672.09;;;;
2019/06/17 05:33:05;;;;;;;37.05;33.2;;;;;;;15.16;98.28125;95673.17;;;;
2019/06/17 05:34:07;;;;;;;37.05;33.2;;;;;;;15.16;98.28125;95673.17;;;;
2019/06/17 05:35:08;;;;;;;37.05;33.2;;;;;;;15.16;98.28125;95673.17;;;;
2019/06/17 05:36:14;;;;;;;37.05;33.2;;;;;;;15.16;98.28125;95673.17;;;;
2019/06/17 05:37:15;;;;;;;37.05;33.2;;;;;;;15.16;98.28125;95673.17;;;;
2019/06/17 05:38:16;;;;;;;37.05;33.2;;;;;;;15.16;98.28125;95673.17;;;;
2019/06/17 05:39:17;;;;;;;37.05;33.2;;;;;;;15.16;98.28125;95673.17;;;;
2019/06/17 05:40:18;;;;;;;37.05;33.2;;;;;;;15.16;98.28125;95673.17;;;;
2019/06/17 05:41:19;;;;;;;37.05;33.2;;;;;;;15.16;98.28125;95673.17;;;;
2019/06/17 05:42:20;;;;;;;37.05;33.2;;;;;;;15.16;98.28125;95673.17;;;;
2019/06/17 05:43:21;;;;;;;37.05;33.2;;;;;;;15.16;98.28125;95673.17;;;;